sensor_id;sensor_type;location;lat;lon;timestamp;P1;durP1;ratioP1;P2;durP2;ratioP2
70270;SDS011;57680;54.292;18.598;2022-07-05T00:01:57;8.40;;;3.70;;
70270;SDS011;57680;54.292;18.598;2022-07-05T00:04:23;7.93;;;3.87;;
70270;SDS011;57680;54.292;18.598;2022-07-05T00:06:48;7.70;;;4.20;;
70270;SDS011;57680;54.292;18.598;2022-07-05T00:09:32;12.32;;;5.30;;
70270;SDS011;57680;54.292;18.598;2022-07-05T00:11:58;6.27;;;3.40;;
70270;SDS011;57680;54.292;18.598;2022-07-05T00:14:23;7.10;;;3.70;;
70270;SDS011;57680;54.292;18.598;2022-07-05T00:16:49;8.25;;;3.83;;
70270;SDS011;57680;54.292;18.598;2022-07-05T00:19:15;6.47;;;3.47;;
70270;SDS011;57680;54.292;18.598;2022-07-05T00:21:40;13.82;;;5.47;;
70270;SDS011;57680;54.292;18.598;2022-07-05T00:24:06;6.17;;;3.10;;
70270;SDS011;57680;54.292;18.598;2022-07-05T00:26:32;8.05;;;3.45;;
70270;SDS011;57680;54.292;18.598;2022-07-05T00:28:57;7.50;;;3.53;;
70270;SDS011;57680;54.292;18.598;2022-07-05T00:31:23;8.23;;;3.57;;
70270;SDS011;57680;54.292;18.598;2022-07-05T00:33:49;6.97;;;3.70;;
70270;SDS011;57680;54.292;18.598;2022-07-05T00:36:14;7.70;;;3.83;;
70270;SDS011;57680;54.292;18.598;2022-07-05T00:38:40;8.63;;;3.80;;
70270;SDS011;57680;54.292;18.598;2022-07-05T00:41:05;6.43;;;3.27;;
70270;SDS011;57680;54.292;18.598;2022-07-05T00:43:31;7.88;;;4.15;;
70270;SDS011;57680;54.292;18.598;2022-07-05T00:45:56;7.93;;;3.60;;
70270;SDS011;57680;54.292;18.598;2022-07-05T00:48:22;7.20;;;3.60;;
70270;SDS011;57680;54.292;18.598;2022-07-05T00:50:48;7.30;;;3.30;;
70270;SDS011;57680;54.292;18.598;2022-07-05T00:53:15;7.68;;;3.70;;
70270;SDS011;57680;54.292;18.598;2022-07-05T00:55:42;6.90;;;3.27;;
70270;SDS011;57680;54.292;18.598;2022-07-05T00:58:09;6.82;;;3.90;;
70270;SDS011;57680;54.292;18.598;2022-07-05T01:00:35;9.85;;;3.97;;
70270;SDS011;57680;54.292;18.598;2022-07-05T01:03:01;7.87;;;3.67;;
70270;SDS011;57680;54.292;18.598;2022-07-05T01:05:27;7.10;;;3.85;;
70270;SDS011;57680;54.292;18.598;2022-07-05T01:07:53;7.33;;;3.77;;
70270;SDS011;57680;54.292;18.598;2022-07-05T01:10:21;6.72;;;3.53;;
70270;SDS011;57680;54.292;18.598;2022-07-05T01:12:47;7.40;;;3.42;;
70270;SDS011;57680;54.292;18.598;2022-07-05T01:15:13;7.82;;;3.17;;
70270;SDS011;57680;54.292;18.598;2022-07-05T01:17:39;6.47;;;2.90;;
70270;SDS011;57680;54.292;18.598;2022-07-05T01:20:05;7.22;;;2.70;;
70270;SDS011;57680;54.292;18.598;2022-07-05T01:25:23;5.77;;;2.00;;
70270;SDS011;57680;54.292;18.598;2022-07-05T01:27:51;4.15;;;2.00;;
70270;SDS011;57680;54.292;18.598;2022-07-05T01:30:18;5.25;;;2.35;;
70270;SDS011;57680;54.292;18.598;2022-07-05T01:32:43;4.53;;;2.50;;
70270;SDS011;57680;54.292;18.598;2022-07-05T01:35:09;6.50;;;1.87;;
70270;SDS011;57680;54.292;18.598;2022-07-05T01:37:36;4.40;;;1.80;;
70270;SDS011;57680;54.292;18.598;2022-07-05T01:40:03;4.85;;;2.25;;
70270;SDS011;57680;54.292;18.598;2022-07-05T01:42:29;5.05;;;1.98;;
70270;SDS011;57680;54.292;18.598;2022-07-05T01:44:55;4.07;;;1.60;;
70270;SDS011;57680;54.292;18.598;2022-07-05T01:47:21;4.53;;;1.67;;
70270;SDS011;57680;54.292;18.598;2022-07-05T01:49:48;4.10;;;1.52;;
70270;SDS011;57680;54.292;18.598;2022-07-05T01:52:16;4.70;;;1.80;;
70270;SDS011;57680;54.292;18.598;2022-07-05T01:54:44;4.20;;;1.40;;
70270;SDS011;57680;54.292;18.598;2022-07-05T01:57:10;4.20;;;1.60;;
70270;SDS011;57680;54.292;18.598;2022-07-05T01:59:36;3.47;;;1.73;;
70270;SDS011;57680;54.292;18.598;2022-07-05T02:02:02;2.75;;;1.30;;
70270;SDS011;57680;54.292;18.598;2022-07-05T02:04:29;4.47;;;1.80;;
70270;SDS011;57680;54.292;18.598;2022-07-05T02:06:55;5.37;;;2.30;;
70270;SDS011;57680;54.292;18.598;2022-07-05T02:09:21;5.53;;;2.50;;
70270;SDS011;57680;54.292;18.598;2022-07-05T02:11:46;4.13;;;2.30;;
70270;SDS011;57680;54.292;18.598;2022-07-05T02:14:13;6.40;;;2.50;;
70270;SDS011;57680;54.292;18.598;2022-07-05T02:16:39;4.80;;;2.30;;
70270;SDS011;57680;54.292;18.598;2022-07-05T02:19:05;6.67;;;2.80;;
70270;SDS011;57680;54.292;18.598;2022-07-05T02:21:30;5.23;;;2.30;;
70270;SDS011;57680;54.292;18.598;2022-07-05T02:23:56;6.88;;;2.35;;
70270;SDS011;57680;54.292;18.598;2022-07-05T02:26:21;5.80;;;2.40;;
70270;SDS011;57680;54.292;18.598;2022-07-05T02:28:47;7.00;;;2.07;;
70270;SDS011;57680;54.292;18.598;2022-07-05T02:31:13;6.27;;;2.20;;
70270;SDS011;57680;54.292;18.598;2022-07-05T02:33:40;4.75;;;2.22;;
70270;SDS011;57680;54.292;18.598;2022-07-05T02:36:06;6.10;;;2.00;;
70270;SDS011;57680;54.292;18.598;2022-07-05T02:38:34;3.88;;;1.90;;
70270;SDS011;57680;54.292;18.598;2022-07-05T02:40:59;3.22;;;1.92;;
70270;SDS011;57680;54.292;18.598;2022-07-05T02:43:25;3.13;;;1.70;;
70270;SDS011;57680;54.292;18.598;2022-07-05T02:45:51;4.32;;;1.80;;
70270;SDS011;57680;54.292;18.598;2022-07-05T02:48:16;4.37;;;2.00;;
70270;SDS011;57680;54.292;18.598;2022-07-05T02:50:42;3.93;;;1.50;;
70270;SDS011;57680;54.292;18.598;2022-07-05T02:53:07;3.80;;;1.70;;
70270;SDS011;57680;54.292;18.598;2022-07-05T02:55:32;4.22;;;1.60;;
70270;SDS011;57680;54.292;18.598;2022-07-05T02:57:58;3.27;;;1.60;;
70270;SDS011;57680;54.292;18.598;2022-07-05T03:00:24;5.70;;;1.83;;
70270;SDS011;57680;54.292;18.598;2022-07-05T03:02:49;4.50;;;1.70;;
70270;SDS011;57680;54.292;18.598;2022-07-05T03:05:15;2.90;;;1.70;;
70270;SDS011;57680;54.292;18.598;2022-07-05T03:07:40;4.70;;;1.90;;
70270;SDS011;57680;54.292;18.598;2022-07-05T03:10:06;4.88;;;2.50;;
70270;SDS011;57680;54.292;18.598;2022-07-05T03:12:31;5.20;;;2.37;;
70270;SDS011;57680;54.292;18.598;2022-07-05T03:14:57;6.23;;;2.53;;
70270;SDS011;57680;54.292;18.598;2022-07-05T03:17:22;4.97;;;2.33;;
70270;SDS011;57680;54.292;18.598;2022-07-05T03:19:48;3.87;;;2.20;;
70270;SDS011;57680;54.292;18.598;2022-07-05T03:22:13;4.57;;;2.00;;
70270;SDS011;57680;54.292;18.598;2022-07-05T03:24:39;4.93;;;1.90;;
70270;SDS011;57680;54.292;18.598;2022-07-05T03:27:04;4.47;;;1.87;;
70270;SDS011;57680;54.292;18.598;2022-07-05T03:29:30;5.47;;;2.33;;
70270;SDS011;57680;54.292;18.598;2022-07-05T03:31:55;4.72;;;1.70;;
70270;SDS011;57680;54.292;18.598;2022-07-05T03:34:21;3.80;;;1.50;;
70270;SDS011;57680;54.292;18.598;2022-07-05T03:36:46;4.23;;;1.50;;
70270;SDS011;57680;54.292;18.598;2022-07-05T03:39:12;4.15;;;1.30;;
70270;SDS011;57680;54.292;18.598;2022-07-05T03:41:37;5.00;;;1.70;;
70270;SDS011;57680;54.292;18.598;2022-07-05T03:44:03;4.45;;;2.00;;
70270;SDS011;57680;54.292;18.598;2022-07-05T03:53:56;3.97;;;1.92;;
70270;SDS011;57680;54.292;18.598;2022-07-05T03:56:22;5.47;;;1.93;;
70270;SDS011;57680;54.292;18.598;2022-07-05T03:58:48;5.13;;;1.90;;
70270;SDS011;57680;54.292;18.598;2022-07-05T04:01:14;5.00;;;2.10;;
70270;SDS011;57680;54.292;18.598;2022-07-05T04:03:40;5.72;;;2.40;;
70270;SDS011;57680;54.292;18.598;2022-07-05T04:06:06;7.90;;;2.63;;
70270;SDS011;57680;54.292;18.598;2022-07-05T04:08:35;13.73;;;4.30;;
70270;SDS011;57680;54.292;18.598;2022-07-05T04:11:01;15.95;;;4.70;;
70270;SDS011;57680;54.292;18.598;2022-07-05T04:13:27;13.00;;;4.37;;
70270;SDS011;57680;54.292;18.598;2022-07-05T04:15:52;11.40;;;3.70;;
70270;SDS011;57680;54.292;18.598;2022-07-05T04:18:24;7.28;;;2.67;;
70270;SDS011;57680;54.292;18.598;2022-07-05T04:20:49;6.67;;;2.10;;
70270;SDS011;57680;54.292;18.598;2022-07-05T04:23:15;4.28;;;1.90;;
70270;SDS011;57680;54.292;18.598;2022-07-05T04:25:40;4.20;;;1.87;;
70270;SDS011;57680;54.292;18.598;2022-07-05T04:28:06;3.55;;;1.73;;
70270;SDS011;57680;54.292;18.598;2022-07-05T04:30:31;2.67;;;1.40;;
70270;SDS011;57680;54.292;18.598;2022-07-05T04:32:57;3.67;;;1.50;;
70270;SDS011;57680;54.292;18.598;2022-07-05T04:35:23;4.38;;;1.48;;
70270;SDS011;57680;54.292;18.598;2022-07-05T04:37:49;4.95;;;1.83;;
70270;SDS011;57680;54.292;18.598;2022-07-05T04:40:14;4.43;;;1.63;;
70270;SDS011;57680;54.292;18.598;2022-07-05T04:42:40;4.00;;;1.77;;
70270;SDS011;57680;54.292;18.598;2022-07-05T04:45:07;4.18;;;1.50;;
70270;SDS011;57680;54.292;18.598;2022-07-05T04:47:33;5.07;;;1.70;;
70270;SDS011;57680;54.292;18.598;2022-07-05T04:49:59;4.97;;;1.80;;
70270;SDS011;57680;54.292;18.598;2022-07-05T04:52:25;3.97;;;2.00;;
70270;SDS011;57680;54.292;18.598;2022-07-05T04:54:51;5.25;;;1.88;;
70270;SDS011;57680;54.292;18.598;2022-07-05T04:57:17;3.73;;;1.70;;
70270;SDS011;57680;54.292;18.598;2022-07-05T04:59:43;5.60;;;1.85;;
70270;SDS011;57680;54.292;18.598;2022-07-05T05:02:09;4.30;;;1.80;;
70270;SDS011;57680;54.292;18.598;2022-07-05T05:04:34;6.20;;;1.38;;
70270;SDS011;57680;54.292;18.598;2022-07-05T05:07:00;4.60;;;1.50;;
70270;SDS011;57680;54.292;18.598;2022-07-05T05:09:26;3.83;;;1.40;;
70270;SDS011;57680;54.292;18.598;2022-07-05T05:11:53;3.17;;;1.30;;
70270;SDS011;57680;54.292;18.598;2022-07-05T05:14:18;3.42;;;1.30;;
70270;SDS011;57680;54.292;18.598;2022-07-05T05:16:44;3.73;;;1.50;;
70270;SDS011;57680;54.292;18.598;2022-07-05T05:19:09;3.27;;;1.10;;
70270;SDS011;57680;54.292;18.598;2022-07-05T05:21:35;4.47;;;1.20;;
70270;SDS011;57680;54.292;18.598;2022-07-05T05:24:00;3.50;;;1.33;;
70270;SDS011;57680;54.292;18.598;2022-07-05T05:26:26;7.33;;;1.40;;
70270;SDS011;57680;54.292;18.598;2022-07-05T05:28:52;2.35;;;1.20;;
70270;SDS011;57680;54.292;18.598;2022-07-05T05:31:17;3.60;;;1.53;;
70270;SDS011;57680;54.292;18.598;2022-07-05T05:33:44;4.27;;;1.80;;
70270;SDS011;57680;54.292;18.598;2022-07-05T05:36:10;4.53;;;1.70;;
70270;SDS011;57680;54.292;18.598;2022-07-05T05:38:35;4.72;;;1.30;;
70270;SDS011;57680;54.292;18.598;2022-07-05T05:41:01;4.00;;;1.40;;
70270;SDS011;57680;54.292;18.598;2022-07-05T05:43:27;6.78;;;1.50;;
70270;SDS011;57680;54.292;18.598;2022-07-05T05:45:52;3.73;;;1.30;;
70270;SDS011;57680;54.292;18.598;2022-07-05T05:48:18;3.33;;;1.75;;
70270;SDS011;57680;54.292;18.598;2022-07-05T05:50:45;6.33;;;1.50;;
70270;SDS011;57680;54.292;18.598;2022-07-05T05:53:11;4.50;;;1.63;;
70270;SDS011;57680;54.292;18.598;2022-07-05T05:55:36;5.23;;;1.50;;
70270;SDS011;57680;54.292;18.598;2022-07-05T05:58:12;4.80;;;1.70;;
70270;SDS011;57680;54.292;18.598;2022-07-05T06:00:42;4.15;;;1.30;;
70270;SDS011;57680;54.292;18.598;2022-07-05T06:03:09;4.78;;;1.63;;
70270;SDS011;57680;54.292;18.598;2022-07-05T06:05:35;3.40;;;1.13;;
70270;SDS011;57680;54.292;18.598;2022-07-05T06:08:00;6.68;;;1.63;;
70270;SDS011;57680;54.292;18.598;2022-07-05T06:10:27;4.63;;;1.17;;
70270;SDS011;57680;54.292;18.598;2022-07-05T06:12:56;7.85;;;1.40;;
70270;SDS011;57680;54.292;18.598;2022-07-05T06:15:22;4.32;;;1.40;;
70270;SDS011;57680;54.292;18.598;2022-07-05T06:17:48;5.70;;;1.40;;
70270;SDS011;57680;54.292;18.598;2022-07-05T06:20:15;6.75;;;1.50;;
70270;SDS011;57680;54.292;18.598;2022-07-05T06:22:44;6.03;;;1.50;;
70270;SDS011;57680;54.292;18.598;2022-07-05T06:25:11;4.00;;;1.63;;
70270;SDS011;57680;54.292;18.598;2022-07-05T06:27:40;4.53;;;1.73;;
70270;SDS011;57680;54.292;18.598;2022-07-05T06:30:07;5.73;;;1.60;;
70270;SDS011;57680;54.292;18.598;2022-07-05T06:32:33;4.05;;;1.52;;
70270;SDS011;57680;54.292;18.598;2022-07-05T06:34:59;3.47;;;1.30;;
70270;SDS011;57680;54.292;18.598;2022-07-05T06:37:24;2.83;;;1.30;;
70270;SDS011;57680;54.292;18.598;2022-07-05T06:39:50;5.90;;;1.70;;
70270;SDS011;57680;54.292;18.598;2022-07-05T06:42:15;4.70;;;1.70;;
70270;SDS011;57680;54.292;18.598;2022-07-05T06:44:41;4.63;;;1.52;;
70270;SDS011;57680;54.292;18.598;2022-07-05T06:47:07;4.20;;;1.40;;
70270;SDS011;57680;54.292;18.598;2022-07-05T06:49:33;4.28;;;1.52;;
70270;SDS011;57680;54.292;18.598;2022-07-05T06:51:59;6.03;;;1.27;;
70270;SDS011;57680;54.292;18.598;2022-07-05T06:54:24;4.77;;;1.43;;
70270;SDS011;57680;54.292;18.598;2022-07-05T06:56:50;4.40;;;1.55;;
70270;SDS011;57680;54.292;18.598;2022-07-05T06:59:15;5.57;;;1.40;;
70270;SDS011;57680;54.292;18.598;2022-07-05T07:01:40;4.57;;;1.30;;
70270;SDS011;57680;54.292;18.598;2022-07-05T07:04:06;4.20;;;1.10;;
70270;SDS011;57680;54.292;18.598;2022-07-05T07:06:31;5.97;;;1.40;;
70270;SDS011;57680;54.292;18.598;2022-07-05T07:08:57;4.07;;;1.30;;
70270;SDS011;57680;54.292;18.598;2022-07-05T07:11:41;4.43;;;1.30;;
70270;SDS011;57680;54.292;18.598;2022-07-05T07:14:06;2.63;;;1.43;;
70270;SDS011;57680;54.292;18.598;2022-07-05T07:16:32;3.07;;;1.20;;
70270;SDS011;57680;54.292;18.598;2022-07-05T07:18:57;4.30;;;1.30;;
70270;SDS011;57680;54.292;18.598;2022-07-05T07:21:23;4.50;;;1.40;;
70270;SDS011;57680;54.292;18.598;2022-07-05T07:23:48;3.50;;;1.27;;
70270;SDS011;57680;54.292;18.598;2022-07-05T07:26:14;5.27;;;1.20;;
70270;SDS011;57680;54.292;18.598;2022-07-05T07:28:39;7.13;;;1.42;;
70270;SDS011;57680;54.292;18.598;2022-07-05T07:31:05;4.35;;;1.40;;
70270;SDS011;57680;54.292;18.598;2022-07-05T07:33:31;5.50;;;1.57;;
70270;SDS011;57680;54.292;18.598;2022-07-05T07:35:58;4.22;;;1.30;;
70270;SDS011;57680;54.292;18.598;2022-07-05T07:38:23;4.70;;;1.10;;
70270;SDS011;57680;54.292;18.598;2022-07-05T07:40:50;2.70;;;1.10;;
70270;SDS011;57680;54.292;18.598;2022-07-05T07:43:15;2.33;;;0.98;;
70270;SDS011;57680;54.292;18.598;2022-07-05T07:45:41;3.22;;;1.13;;
70270;SDS011;57680;54.292;18.598;2022-07-05T07:48:07;4.90;;;1.33;;
70270;SDS011;57680;54.292;18.598;2022-07-05T07:50:33;2.97;;;1.27;;
70270;SDS011;57680;54.292;18.598;2022-07-05T07:52:58;4.03;;;1.57;;
70270;SDS011;57680;54.292;18.598;2022-07-05T07:55:24;4.57;;;1.40;;
70270;SDS011;57680;54.292;18.598;2022-07-05T07:57:49;4.07;;;1.47;;
70270;SDS011;57680;54.292;18.598;2022-07-05T08:00:15;2.53;;;1.17;;
70270;SDS011;57680;54.292;18.598;2022-07-05T08:02:40;2.40;;;1.20;;
70270;SDS011;57680;54.292;18.598;2022-07-05T08:05:06;3.28;;;1.33;;
70270;SDS011;57680;54.292;18.598;2022-07-05T08:07:34;3.95;;;1.40;;
70270;SDS011;57680;54.292;18.598;2022-07-05T08:10:00;4.23;;;2.63;;
70270;SDS011;57680;54.292;18.598;2022-07-05T08:12:26;5.15;;;1.30;;
70270;SDS011;57680;54.292;18.598;2022-07-05T08:14:51;3.70;;;0.97;;
70270;SDS011;57680;54.292;18.598;2022-07-05T08:17:17;3.45;;;1.40;;
70270;SDS011;57680;54.292;18.598;2022-07-05T08:19:45;5.33;;;1.40;;
70270;SDS011;57680;54.292;18.598;2022-07-05T08:22:30;3.03;;;1.27;;
70270;SDS011;57680;54.292;18.598;2022-07-05T08:24:56;3.67;;;1.58;;
70270;SDS011;57680;54.292;18.598;2022-07-05T08:27:21;4.83;;;1.33;;
70270;SDS011;57680;54.292;18.598;2022-07-05T08:29:46;3.13;;;1.40;;
70270;SDS011;57680;54.292;18.598;2022-07-05T08:32:12;3.13;;;1.40;;
70270;SDS011;57680;54.292;18.598;2022-07-05T08:34:38;3.08;;;1.52;;
70270;SDS011;57680;54.292;18.598;2022-07-05T08:37:04;4.93;;;1.10;;
70270;SDS011;57680;54.292;18.598;2022-07-05T08:39:31;4.38;;;1.20;;
70270;SDS011;57680;54.292;18.598;2022-07-05T08:41:56;3.03;;;1.20;;
70270;SDS011;57680;54.292;18.598;2022-07-05T08:44:23;3.50;;;1.20;;
70270;SDS011;57680;54.292;18.598;2022-07-05T08:46:49;3.40;;;1.20;;
70270;SDS011;57680;54.292;18.598;2022-07-05T08:49:20;3.75;;;1.23;;
70270;SDS011;57680;54.292;18.598;2022-07-05T08:51:50;2.30;;;1.38;;
70270;SDS011;57680;54.292;18.598;2022-07-05T08:54:17;2.77;;;1.23;;
70270;SDS011;57680;54.292;18.598;2022-07-05T08:56:45;4.18;;;1.48;;
70270;SDS011;57680;54.292;18.598;2022-07-05T08:59:11;5.03;;;1.20;;
70270;SDS011;57680;54.292;18.598;2022-07-05T09:01:36;2.30;;;1.20;;
70270;SDS011;57680;54.292;18.598;2022-07-05T09:04:04;3.13;;;1.40;;
70270;SDS011;57680;54.292;18.598;2022-07-05T09:06:32;2.95;;;1.45;;
70270;SDS011;57680;54.292;18.598;2022-07-05T09:09:01;3.47;;;1.30;;
70270;SDS011;57680;54.292;18.598;2022-07-05T09:11:29;3.53;;;1.60;;
70270;SDS011;57680;54.292;18.598;2022-07-05T09:14:01;3.97;;;1.60;;
70270;SDS011;57680;54.292;18.598;2022-07-05T09:16:28;4.63;;;1.70;;
70270;SDS011;57680;54.292;18.598;2022-07-05T09:18:54;3.92;;;1.58;;
70270;SDS011;57680;54.292;18.598;2022-07-05T09:21:25;5.18;;;1.67;;
70270;SDS011;57680;54.292;18.598;2022-07-05T09:23:55;3.03;;;1.65;;
70270;SDS011;57680;54.292;18.598;2022-07-05T09:26:35;3.67;;;2.07;;
70270;SDS011;57680;54.292;18.598;2022-07-05T09:29:04;4.18;;;2.03;;
70270;SDS011;57680;54.292;18.598;2022-07-05T09:31:35;4.38;;;1.85;;
70270;SDS011;57680;54.292;18.598;2022-07-05T09:34:08;4.15;;;1.88;;
70270;SDS011;57680;54.292;18.598;2022-07-05T09:36:54;5.20;;;2.00;;
70270;SDS011;57680;54.292;18.598;2022-07-05T09:44:49;3.42;;;1.90;;
70270;SDS011;57680;54.292;18.598;2022-07-05T09:47:16;3.75;;;2.13;;
70270;SDS011;57680;54.292;18.598;2022-07-05T09:49:44;5.57;;;2.00;;
70270;SDS011;57680;54.292;18.598;2022-07-05T09:52:25;2.53;;;1.60;;
70270;SDS011;57680;54.292;18.598;2022-07-05T09:57:40;3.78;;;1.80;;
70270;SDS011;57680;54.292;18.598;2022-07-05T10:00:08;4.57;;;2.00;;
70270;SDS011;57680;54.292;18.598;2022-07-05T10:05:20;4.13;;;2.10;;
70270;SDS011;57680;54.292;18.598;2022-07-05T10:07:49;3.15;;;1.92;;
70270;SDS011;57680;54.292;18.598;2022-07-05T10:10:19;3.25;;;2.17;;
70270;SDS011;57680;54.292;18.598;2022-07-05T10:12:48;4.40;;;2.30;;
70270;SDS011;57680;54.292;18.598;2022-07-05T10:15:15;3.70;;;2.05;;
70270;SDS011;57680;54.292;18.598;2022-07-05T10:17:50;4.53;;;2.23;;
70270;SDS011;57680;54.292;18.598;2022-07-05T10:22:58;4.15;;;2.20;;
70270;SDS011;57680;54.292;18.598;2022-07-05T10:25:27;5.20;;;2.30;;
70270;SDS011;57680;54.292;18.598;2022-07-05T10:27:54;4.45;;;2.08;;
70270;SDS011;57680;54.292;18.598;2022-07-05T10:30:22;3.93;;;2.30;;
70270;SDS011;57680;54.292;18.598;2022-07-05T10:32:48;5.03;;;2.17;;
70270;SDS011;57680;54.292;18.598;2022-07-05T10:35:15;4.22;;;2.40;;
70270;SDS011;57680;54.292;18.598;2022-07-05T10:37:42;3.78;;;2.00;;
70270;SDS011;57680;54.292;18.598;2022-07-05T10:40:08;4.38;;;2.00;;
70270;SDS011;57680;54.292;18.598;2022-07-05T10:42:39;5.27;;;2.20;;
70270;SDS011;57680;54.292;18.598;2022-07-05T10:53:08;4.72;;;2.25;;
70270;SDS011;57680;54.292;18.598;2022-07-05T10:55:46;4.43;;;2.10;;
70270;SDS011;57680;54.292;18.598;2022-07-05T11:00:45;5.57;;;2.03;;
70270;SDS011;57680;54.292;18.598;2022-07-05T11:06:20;5.50;;;2.03;;
70270;SDS011;57680;54.292;18.598;2022-07-05T11:11:28;4.35;;;2.15;;
70270;SDS011;57680;54.292;18.598;2022-07-05T11:13:56;4.33;;;1.87;;
70270;SDS011;57680;54.292;18.598;2022-07-05T11:16:26;4.28;;;2.00;;
70270;SDS011;57680;54.292;18.598;2022-07-05T11:19:03;4.72;;;2.00;;
70270;SDS011;57680;54.292;18.598;2022-07-05T11:21:33;3.05;;;1.70;;
70270;SDS011;57680;54.292;18.598;2022-07-05T11:26:49;2.83;;;1.63;;
70270;SDS011;57680;54.292;18.598;2022-07-05T11:32:05;3.42;;;2.00;;
70270;SDS011;57680;54.292;18.598;2022-07-05T11:34:35;6.40;;;2.00;;
70270;SDS011;57680;54.292;18.598;2022-07-05T11:37:44;3.53;;;1.90;;
70270;SDS011;57680;54.292;18.598;2022-07-05T11:42:35;8.00;;;1.90;;
70270;SDS011;57680;54.292;18.598;2022-07-05T11:45:14;4.55;;;1.90;;
70270;SDS011;57680;54.292;18.598;2022-07-05T11:47:40;3.35;;;1.63;;
70270;SDS011;57680;54.292;18.598;2022-07-05T11:50:06;3.73;;;1.60;;
70270;SDS011;57680;54.292;18.598;2022-07-05T11:52:33;5.38;;;2.03;;
70270;SDS011;57680;54.292;18.598;2022-07-05T11:55:00;4.22;;;2.10;;
70270;SDS011;57680;54.292;18.598;2022-07-05T11:57:27;3.53;;;1.60;;
70270;SDS011;57680;54.292;18.598;2022-07-05T11:59:53;3.30;;;1.80;;
70270;SDS011;57680;54.292;18.598;2022-07-05T12:02:18;4.07;;;1.80;;
70270;SDS011;57680;54.292;18.598;2022-07-05T12:04:54;7.43;;;2.00;;
70270;SDS011;57680;54.292;18.598;2022-07-05T12:07:34;4.68;;;2.20;;
70270;SDS011;57680;54.292;18.598;2022-07-05T12:10:00;5.82;;;2.65;;
70270;SDS011;57680;54.292;18.598;2022-07-05T12:12:46;8.73;;;3.33;;
70270;SDS011;57680;54.292;18.598;2022-07-05T12:15:16;19.77;;;5.10;;
70270;SDS011;57680;54.292;18.598;2022-07-05T12:17:44;10.85;;;3.75;;
70270;SDS011;57680;54.292;18.598;2022-07-05T12:20:11;9.45;;;3.40;;
70270;SDS011;57680;54.292;18.598;2022-07-05T12:22:39;7.07;;;3.30;;
70270;SDS011;57680;54.292;18.598;2022-07-05T12:25:05;7.00;;;3.17;;
70270;SDS011;57680;54.292;18.598;2022-07-05T12:27:35;10.53;;;3.43;;
70270;SDS011;57680;54.292;18.598;2022-07-05T12:30:02;8.15;;;4.10;;
70270;SDS011;57680;54.292;18.598;2022-07-05T12:32:29;7.50;;;3.97;;
70270;SDS011;57680;54.292;18.598;2022-07-05T12:34:56;7.88;;;3.53;;
70270;SDS011;57680;54.292;18.598;2022-07-05T12:37:22;7.57;;;3.40;;
70270;SDS011;57680;54.292;18.598;2022-07-05T12:39:48;8.60;;;3.60;;
70270;SDS011;57680;54.292;18.598;2022-07-05T12:42:37;8.63;;;3.45;;
70270;SDS011;57680;54.292;18.598;2022-07-05T12:45:09;8.75;;;3.65;;
70270;SDS011;57680;54.292;18.598;2022-07-05T12:47:36;10.82;;;3.70;;
70270;SDS011;57680;54.292;18.598;2022-07-05T12:50:12;10.65;;;4.30;;
70270;SDS011;57680;54.292;18.598;2022-07-05T12:55:22;10.68;;;3.67;;
70270;SDS011;57680;54.292;18.598;2022-07-05T12:58:17;13.13;;;4.57;;
70270;SDS011;57680;54.292;18.598;2022-07-05T13:00:42;6.03;;;2.50;;
70270;SDS011;57680;54.292;18.598;2022-07-05T13:03:07;9.37;;;3.50;;
70270;SDS011;57680;54.292;18.598;2022-07-05T13:05:33;6.90;;;2.47;;
70270;SDS011;57680;54.292;18.598;2022-07-05T13:07:58;5.87;;;2.80;;
70270;SDS011;57680;54.292;18.598;2022-07-05T13:10:24;7.40;;;2.40;;
70270;SDS011;57680;54.292;18.598;2022-07-05T13:12:53;6.67;;;2.50;;
70270;SDS011;57680;54.292;18.598;2022-07-05T13:15:21;5.55;;;2.20;;
70270;SDS011;57680;54.292;18.598;2022-07-05T13:17:46;5.83;;;2.70;;
70270;SDS011;57680;54.292;18.598;2022-07-05T13:20:18;7.65;;;2.30;;
70270;SDS011;57680;54.292;18.598;2022-07-05T13:22:45;10.00;;;2.42;;
70270;SDS011;57680;54.292;18.598;2022-07-05T13:25:12;4.43;;;2.13;;
70270;SDS011;57680;54.292;18.598;2022-07-05T13:27:38;5.97;;;2.30;;
70270;SDS011;57680;54.292;18.598;2022-07-05T13:30:04;4.07;;;1.90;;
70270;SDS011;57680;54.292;18.598;2022-07-05T13:32:30;6.65;;;1.90;;
70270;SDS011;57680;54.292;18.598;2022-07-05T13:34:56;4.47;;;2.17;;
70270;SDS011;57680;54.292;18.598;2022-07-05T13:37:22;5.93;;;2.50;;
70270;SDS011;57680;54.292;18.598;2022-07-05T13:39:47;8.33;;;3.10;;
70270;SDS011;57680;54.292;18.598;2022-07-05T13:42:14;6.40;;;2.17;;
70270;SDS011;57680;54.292;18.598;2022-07-05T13:44:39;6.40;;;2.20;;
70270;SDS011;57680;54.292;18.598;2022-07-05T13:47:05;5.60;;;2.60;;
70270;SDS011;57680;54.292;18.598;2022-07-05T13:49:30;7.37;;;2.80;;
70270;SDS011;57680;54.292;18.598;2022-07-05T13:51:56;5.50;;;2.78;;
70270;SDS011;57680;54.292;18.598;2022-07-05T13:54:26;6.57;;;2.70;;
70270;SDS011;57680;54.292;18.598;2022-07-05T13:56:51;6.78;;;2.80;;
70270;SDS011;57680;54.292;18.598;2022-07-05T13:59:17;8.37;;;3.00;;
70270;SDS011;57680;54.292;18.598;2022-07-05T14:01:42;5.60;;;1.70;;
70270;SDS011;57680;54.292;18.598;2022-07-05T14:04:09;5.33;;;1.93;;
70270;SDS011;57680;54.292;18.598;2022-07-05T14:06:35;8.60;;;2.40;;
70270;SDS011;57680;54.292;18.598;2022-07-05T14:09:02;9.00;;;3.00;;
70270;SDS011;57680;54.292;18.598;2022-07-05T14:11:28;5.77;;;2.67;;
70270;SDS011;57680;54.292;18.598;2022-07-05T14:13:54;5.00;;;2.00;;
70270;SDS011;57680;54.292;18.598;2022-07-05T14:16:20;6.05;;;3.20;;
70270;SDS011;57680;54.292;18.598;2022-07-05T14:18:46;7.20;;;2.55;;
70270;SDS011;57680;54.292;18.598;2022-07-05T14:21:11;6.97;;;2.60;;
70270;SDS011;57680;54.292;18.598;2022-07-05T14:23:49;6.93;;;2.55;;
70270;SDS011;57680;54.292;18.598;2022-07-05T14:26:15;5.47;;;2.20;;
70270;SDS011;57680;54.292;18.598;2022-07-05T14:28:41;5.53;;;2.10;;
70270;SDS011;57680;54.292;18.598;2022-07-05T14:31:07;9.15;;;2.70;;
70270;SDS011;57680;54.292;18.598;2022-07-05T14:33:32;8.20;;;2.40;;
70270;SDS011;57680;54.292;18.598;2022-07-05T14:35:58;8.07;;;2.92;;
70270;SDS011;57680;54.292;18.598;2022-07-05T14:38:23;6.77;;;2.67;;
70270;SDS011;57680;54.292;18.598;2022-07-05T14:40:49;6.10;;;2.83;;
70270;SDS011;57680;54.292;18.598;2022-07-05T14:43:14;7.30;;;2.70;;
70270;SDS011;57680;54.292;18.598;2022-07-05T14:45:40;9.03;;;2.70;;
70270;SDS011;57680;54.292;18.598;2022-07-05T14:48:05;8.80;;;3.20;;
70270;SDS011;57680;54.292;18.598;2022-07-05T14:50:31;5.43;;;2.45;;
70270;SDS011;57680;54.292;18.598;2022-07-05T14:52:57;6.27;;;2.30;;
70270;SDS011;57680;54.292;18.598;2022-07-05T14:55:22;6.73;;;2.33;;
70270;SDS011;57680;54.292;18.598;2022-07-05T14:57:48;6.00;;;2.50;;
70270;SDS011;57680;54.292;18.598;2022-07-05T15:00:15;8.10;;;2.92;;
70270;SDS011;57680;54.292;18.598;2022-07-05T15:02:41;6.67;;;2.20;;
70270;SDS011;57680;54.292;18.598;2022-07-05T15:05:07;7.85;;;2.88;;
70270;SDS011;57680;54.292;18.598;2022-07-05T15:07:35;11.20;;;2.53;;
70270;SDS011;57680;54.292;18.598;2022-07-05T15:10:01;4.93;;;2.47;;
70270;SDS011;57680;54.292;18.598;2022-07-05T15:12:26;7.97;;;2.90;;
70270;SDS011;57680;54.292;18.598;2022-07-05T15:14:51;5.53;;;2.10;;
70270;SDS011;57680;54.292;18.598;2022-07-05T15:17:17;7.35;;;2.70;;
70270;SDS011;57680;54.292;18.598;2022-07-05T15:19:42;6.97;;;2.63;;
70270;SDS011;57680;54.292;18.598;2022-07-05T15:22:08;7.63;;;2.50;;
70270;SDS011;57680;54.292;18.598;2022-07-05T15:24:35;8.88;;;2.60;;